Traverse City, MI

9:55 AM EST on December 18, 2014 (GMT -0500)
Hills of Westbrook | Change Station
CLOSE
Current Station
Personal Weather Station
Location: Traverse City, MI
Elevation: 1043 ft
Nearby Weather Stations

Elev 1043 ft 44.76 °N, 85.69 °W | Updated 5 seconds ago

Overcast
Overcast
23.9 °F
Feels Like 16 °F
N
6.5
Wind Variable Wind from WNW
Gusts 7.4 mph

Today
High -- | Low -- °F
--% Chance of Precip.
Yesterday
High -- | Low -- °F
Precip. -- in
8:15 AM 5:03 PM
Waning Crescent, 14% visible
Pressure 30.25 in
Visibility 10.0 miles
Clouds Overcast 1400 ft
Windchill 16 °F
Dew Point 20 °F
Humidity 84%
Rainfall 0.00 in
Snow Depth Not available.
UV 0 out of 12
Pollen .10 out of 12
Air Quality Not available.
Flu Activity Not available.
METAR KTVC 181353Z 01006KT 10SM OVC014 M02/M06 A3022 RMK AO2 SLP241 T10221056

More Conditions Fewer Conditions

Pressure 30.25 in
Visibility 10.0 miles
Clouds Overcast 1400 ft
Windchill 16 °F
Dew Point 20 °F
Humidity 84%
Rainfall 0.00 in
Snow Depth Not available.
UV 0 out of 12
Pollen .10 out of 12
Air Quality Not available.
Flu Activity Not available.
METAR KTVC 181353Z 01006KT 10SM OVC014 M02/M06 A3022 RMK AO2 SLP241 T10221056

More Conditions Fewer Conditions

Nowcast | as of 9:00 am EST on December 18, 2014

At 10 am...cloudy. Temperature 27. North winds 7 mph. At 12 PM...mostly cloudy. Temperature 28. North winds 6 mph. At 2 PM...partly sunny. Temperature 29. North winds 6 mph. At 4 PM...partly sunny. Temperature 29. North winds 6 mph.

×

10-Day Weather Forecast

Almanac

Astronomy

Dec. 18, 2014 Rise Set
Actual Time
Civil Twilight
Nautical Twilight
Astronomical Twilight
Moon
Length of Visible Light
Length of Day
Tomorrow will be .
, % of the Moon is Illuminated

Today's Extremes

State Highs State Lows

Community

WunderPhotos

Upload Photos

1,778,929 photos uploaded!

WunderBlogs® & News

Nearby

Air Quality

  Air Quality AQ Index Pollutant
Not available.

Snow Depth

Station Depth Elevation

Earthquake Activity

City Distance Mag. Time & Date
Minimum magnitude displayed is 2.5.

Coastal Water Temperatures

Place Temperature

Nearby Weather Stations